Arlington, MA (02474)

10:01 PM EDT on June 25, 2017 (GMT -0400)
Arlington Center | | Change Station

Elev 43 ft 42.41 °N, 71.15 °W | Updated 15 seconds ago

Rain
Rain
64.9 °F
Feels Like 64.9 °F
N
6.0
Wind Variable Wind from ENE
Gusts 16.0 mph

Today
High -- | Low -- °F
--% Chance of Precip.
Yesterday
High -- | Low -- °F
Precip. -- in
Pressure 29.99 in
Visibility 4.0 miles
Clouds Mostly Cloudy 9000 ft
Dew Point 56 °F
Humidity 73%
Rainfall 0.02 in
Snow Depth Not available.
5:08 AM 8:25 PM
Waxing Crescent, 6% visible
METAR KBED 260156Z 33005KT 4SM RA BKN090 17/14 A2995 RMK AO2 PK WND 28029/0140 RAB38 SLP154 OCNL LTGCG W TS W MOV E P0010 T01670139
Pressure 29.99 in
Visibility 4.0 miles
Clouds Mostly Cloudy 9000 ft
Dew Point 56 °F
Humidity 73%
Rainfall 0.02 in
Snow Depth Not available.
5:08 AM 8:25 PM
Waxing Crescent, 6% visible
METAR KBED 260156Z 33005KT 4SM RA BKN090 17/14 A2995 RMK AO2 PK WND 28029/0140 RAB38 SLP154 OCNL LTGCG W TS W MOV E P0010 T01670139

Get Severe Weather Alerts

Thanks for signing up!

Be on the lookout for a verification email in your inbox.

You'll start receiving the daily forecast at 6 AM.

×

10-Day Weather Forecast

Almanac

Astronomy

Jun. 25, 2017 Rise Set
Actual Time
Civil Twilight
Nautical Twilight
Astronomical Twilight
Moon
Length of Visible Light
Length of Day
Tomorrow will be .
, % of the Moon is Illuminated

Today's Extremes

State Highs State Lows

Community

WunderPhotos

Category 6

Welcome to Category 6. This is the collective home for Weather Underground's featured writeups by Dr. Jeff Masters (right), Bob Henson (left), Chris Burt, and other regular contributors.

Nearby

Air Quality

  Air Quality AQ Index Pollutant
Not available.

Snow Depth

Station Depth Elevation

Earthquake Activity

City Distance Mag. Time & Date
Minimum magnitude displayed is 2.5.

Coastal Water Temperatures

Place Temperature

Stations

Nearby Weather Stations

Station Location Temp. Windchill Dew Point Humidity Wind Precip. Elev Updated Type
                   

Watches & Warnings

There are currently no watches in effect.